sensor_id;sensor_type;location;lat;lon;timestamp;pressure;altitude;pressure_sealevel;temperature;humidity
52957;BME280;38819;42.692;23.342;2023-08-06T00:00:37;94179.00;;;23.06;68.15
52957;BME280;38819;42.692;23.342;2023-08-06T00:03:03;94156.97;;;23.06;66.13
52957;BME280;38819;42.692;23.342;2023-08-06T00:05:28;94135.78;;;22.78;66.18
52957;BME280;38819;42.692;23.342;2023-08-06T00:07:54;94174.31;;;22.82;67.37
52957;BME280;38819;42.692;23.342;2023-08-06T00:10:19;94173.16;;;22.83;68.69
52957;BME280;38819;42.692;23.342;2023-08-06T00:12:46;94181.03;;;22.81;68.54
52957;BME280;38819;42.692;23.342;2023-08-06T00:15:12;94192.81;;;22.63;67.99
52957;BME280;38819;42.692;23.342;2023-08-06T00:17:37;94186.16;;;22.57;67.83
52957;BME280;38819;42.692;23.342;2023-08-06T00:20:04;94158.66;;;22.57;67.95
52957;BME280;38819;42.692;23.342;2023-08-06T00:22:38;94144.88;;;22.61;68.87
52957;BME280;38819;42.692;23.342;2023-08-06T00:25:04;94154.72;;;22.58;68.88
52957;BME280;38819;42.692;23.342;2023-08-06T00:27:30;94168.84;;;22.60;68.87
52957;BME280;38819;42.692;23.342;2023-08-06T00:29:56;94170.47;;;22.50;67.52
52957;BME280;38819;42.692;23.342;2023-08-06T00:32:21;94167.72;;;22.32;69.25
52957;BME280;38819;42.692;23.342;2023-08-06T00:34:47;94147.25;;;22.23;69.71
52957;BME280;38819;42.692;23.342;2023-08-06T00:37:17;94142.94;;;22.14;69.07
52957;BME280;38819;42.692;23.342;2023-08-06T00:39:44;94151.56;;;22.13;69.82
52957;BME280;38819;42.692;23.342;2023-08-06T00:42:10;94141.34;;;22.10;70.30
52957;BME280;38819;42.692;23.342;2023-08-06T00:44:36;94134.28;;;22.05;69.88
52957;BME280;38819;42.692;23.342;2023-08-06T00:47:01;94137.44;;;22.07;70.22
52957;BME280;38819;42.692;23.342;2023-08-06T00:49:27;94135.84;;;22.10;70.31
52957;BME280;38819;42.692;23.342;2023-08-06T00:51:53;94131.94;;;22.07;69.94
52957;BME280;38819;42.692;23.342;2023-08-06T00:54:18;94132.72;;;22.08;70.06
52957;BME280;38819;42.692;23.342;2023-08-06T00:56:45;94135.88;;;22.17;70.33
52957;BME280;38819;42.692;23.342;2023-08-06T00:59:11;94127.59;;;22.06;69.56
52957;BME280;38819;42.692;23.342;2023-08-06T01:01:37;94115.03;;;22.12;69.59
52957;BME280;38819;42.692;23.342;2023-08-06T01:04:03;94114.25;;;22.23;69.25
52957;BME280;38819;42.692;23.342;2023-08-06T01:06:47;94113.09;;;22.31;70.11
52957;BME280;38819;42.692;23.342;2023-08-06T01:14:31;94091.47;;;22.47;71.15
52957;BME280;38819;42.692;23.342;2023-08-06T01:16:58;94097.75;;;22.44;71.65
52957;BME280;38819;42.692;23.342;2023-08-06T01:19:24;94100.06;;;22.56;71.76
52957;BME280;38819;42.692;23.342;2023-08-06T01:21:50;94105.16;;;22.69;71.95
52957;BME280;38819;42.692;23.342;2023-08-06T01:24:15;94092.56;;;22.68;72.09
52957;BME280;38819;42.692;23.342;2023-08-06T01:29:08;94076.84;;;22.65;70.27
52957;BME280;38819;42.692;23.342;2023-08-06T01:31:38;94074.91;;;22.58;68.85
52957;BME280;38819;42.692;23.342;2023-08-06T01:34:23;94079.63;;;22.57;68.63
52957;BME280;38819;42.692;23.342;2023-08-06T01:36:50;94070.19;;;22.62;69.10
52957;BME280;38819;42.692;23.342;2023-08-06T01:39:15;94083.16;;;22.69;69.54
52957;BME280;38819;42.692;23.342;2023-08-06T01:41:41;94078.06;;;22.64;69.54
52957;BME280;38819;42.692;23.342;2023-08-06T01:44:06;94075.69;;;22.62;68.87
52957;BME280;38819;42.692;23.342;2023-08-06T01:46:32;94071.41;;;22.47;70.04
52957;BME280;38819;42.692;23.342;2023-08-06T01:48:57;94071.41;;;22.25;70.21
52957;BME280;38819;42.692;23.342;2023-08-06T01:51:23;94062.78;;;22.23;70.62
52957;BME280;38819;42.692;23.342;2023-08-06T01:53:48;94073.00;;;22.12;71.11
52957;BME280;38819;42.692;23.342;2023-08-06T01:56:13;94071.03;;;22.01;71.66
52957;BME280;38819;42.692;23.342;2023-08-06T01:58:39;94067.13;;;21.99;71.70
52957;BME280;38819;42.692;23.342;2023-08-06T02:01:04;94072.25;;;22.00;71.71
52957;BME280;38819;42.692;23.342;2023-08-06T02:03:30;94069.88;;;21.88;71.10
52957;BME280;38819;42.692;23.342;2023-08-06T02:05:55;94053.41;;;21.95;71.95
52957;BME280;38819;42.692;23.342;2023-08-06T02:08:20;94065.94;;;21.96;72.16
52957;BME280;38819;42.692;23.342;2023-08-06T02:10:46;94058.88;;;22.02;71.96
52957;BME280;38819;42.692;23.342;2023-08-06T02:13:11;94041.97;;;22.11;71.94
52957;BME280;38819;42.692;23.342;2023-08-06T02:15:44;94051.38;;;22.21;70.64
52957;BME280;38819;42.692;23.342;2023-08-06T02:18:10;94058.47;;;22.11;71.66
52957;BME280;38819;42.692;23.342;2023-08-06T02:20:35;94067.50;;;22.23;71.85
52957;BME280;38819;42.692;23.342;2023-08-06T02:23:01;94069.06;;;22.27;71.67
52957;BME280;38819;42.692;23.342;2023-08-06T02:25:26;94082.84;;;22.31;71.32
52957;BME280;38819;42.692;23.342;2023-08-06T02:27:51;94100.91;;;22.35;71.01
52957;BME280;38819;42.692;23.342;2023-08-06T02:30:17;94087.53;;;22.41;70.83
52957;BME280;38819;42.692;23.342;2023-08-06T02:32:42;94069.84;;;22.38;70.23
52957;BME280;38819;42.692;23.342;2023-08-06T02:35:08;94066.31;;;22.34;72.56
52957;BME280;38819;42.692;23.342;2023-08-06T02:37:34;94076.16;;;21.99;75.75
52957;BME280;38819;42.692;23.342;2023-08-06T02:39:59;94091.06;;;21.98;75.54
52957;BME280;38819;42.692;23.342;2023-08-06T02:42:25;94102.47;;;22.04;76.54
52957;BME280;38819;42.692;23.342;2023-08-06T02:44:52;94123.66;;;21.96;77.00
52957;BME280;38819;42.692;23.342;2023-08-06T02:47:20;94126.84;;;22.02;76.44
52957;BME280;38819;42.692;23.342;2023-08-06T02:49:45;94103.63;;;22.07;76.41
52957;BME280;38819;42.692;23.342;2023-08-06T02:52:11;94092.66;;;21.99;75.91
52957;BME280;38819;42.692;23.342;2023-08-06T02:54:36;94086.75;;;22.01;76.29
52957;BME280;38819;42.692;23.342;2023-08-06T02:57:01;94063.22;;;22.04;74.64
52957;BME280;38819;42.692;23.342;2023-08-06T02:59:27;94073.03;;;21.76;75.53
52957;BME280;38819;42.692;23.342;2023-08-06T03:01:52;94059.66;;;21.78;75.51
52957;BME280;38819;42.692;23.342;2023-08-06T03:04:18;94052.63;;;21.77;77.12
52957;BME280;38819;42.692;23.342;2023-08-06T03:06:43;94043.56;;;21.73;76.96
52957;BME280;38819;42.692;23.342;2023-08-06T03:09:09;94071.44;;;21.78;78.94
52957;BME280;38819;42.692;23.342;2023-08-06T03:11:34;94032.19;;;21.85;77.20
52957;BME280;38819;42.692;23.342;2023-08-06T03:13:59;94004.72;;;21.53;78.07
52957;BME280;38819;42.692;23.342;2023-08-06T03:16:25;94018.06;;;21.47;77.65
52957;BME280;38819;42.692;23.342;2023-08-06T03:18:50;94047.44;;;21.46;79.14
52957;BME280;38819;42.692;23.342;2023-08-06T03:21:16;94029.44;;;21.56;79.14
52957;BME280;38819;42.692;23.342;2023-08-06T03:23:41;94012.16;;;21.63;78.98
52957;BME280;38819;42.692;23.342;2023-08-06T03:26:07;93995.69;;;21.59;79.00
52957;BME280;38819;42.692;23.342;2023-08-06T03:28:32;94026.31;;;21.54;77.47
52957;BME280;38819;42.692;23.342;2023-08-06T03:31:02;94055.75;;;21.68;78.46
52957;BME280;38819;42.692;23.342;2023-08-06T03:33:28;94079.69;;;21.78;78.96
52957;BME280;38819;42.692;23.342;2023-08-06T03:35:53;94094.22;;;21.90;80.17
52957;BME280;38819;42.692;23.342;2023-08-06T03:38:19;94102.88;;;21.99;80.13
52957;BME280;38819;42.692;23.342;2023-08-06T03:40:46;94103.25;;;22.05;79.72
52957;BME280;38819;42.692;23.342;2023-08-06T03:43:11;94087.53;;;22.05;79.31
52957;BME280;38819;42.692;23.342;2023-08-06T03:45:36;94069.47;;;21.72;78.41
52957;BME280;38819;42.692;23.342;2023-08-06T03:48:02;94085.19;;;21.78;78.20
52957;BME280;38819;42.692;23.342;2023-08-06T03:50:27;94085.19;;;21.86;79.46
52957;BME280;38819;42.692;23.342;2023-08-06T03:52:53;94076.56;;;21.83;76.80
52957;BME280;38819;42.692;23.342;2023-08-06T03:55:18;94076.94;;;21.78;76.75
52957;BME280;38819;42.692;23.342;2023-08-06T03:57:43;94081.66;;;21.71;77.30
52957;BME280;38819;42.692;23.342;2023-08-06T04:00:09;94078.13;;;21.70;78.53
52957;BME280;38819;42.692;23.342;2023-08-06T04:02:34;94082.44;;;21.71;78.49
52957;BME280;38819;42.692;23.342;2023-08-06T04:05:01;94089.13;;;21.74;78.46
52957;BME280;38819;42.692;23.342;2023-08-06T04:07:26;94104.81;;;21.84;78.25
52957;BME280;38819;42.692;23.342;2023-08-06T04:09:57;94113.44;;;21.93;78.07
52957;BME280;38819;42.692;23.342;2023-08-06T04:12:23;94113.84;;;22.06;79.02
52957;BME280;38819;42.692;23.342;2023-08-06T04:14:50;94112.69;;;22.14;80.26
52957;BME280;38819;42.692;23.342;2023-08-06T04:17:16;94109.94;;;22.14;80.69
52957;BME280;38819;42.692;23.342;2023-08-06T04:19:41;94107.16;;;22.21;79.57
52957;BME280;38819;42.692;23.342;2023-08-06T04:22:06;94107.16;;;22.21;79.30
52957;BME280;38819;42.692;23.342;2023-08-06T04:24:32;94096.97;;;22.26;78.71
52957;BME280;38819;42.692;23.342;2023-08-06T04:26:57;94078.13;;;22.17;76.42
52957;BME280;38819;42.692;23.342;2023-08-06T04:29:23;94074.19;;;22.11;76.42
52957;BME280;38819;42.692;23.342;2023-08-06T04:31:48;94080.84;;;22.13;77.07
52957;BME280;38819;42.692;23.342;2023-08-06T04:34:14;94085.97;;;22.00;76.98
52957;BME280;38819;42.692;23.342;2023-08-06T04:36:39;94078.91;;;22.10;77.58
52957;BME280;38819;42.692;23.342;2023-08-06T04:39:05;94069.88;;;22.20;76.64
52957;BME280;38819;42.692;23.342;2023-08-06T04:41:30;94060.44;;;22.18;76.57
52957;BME280;38819;42.692;23.342;2023-08-06T04:43:56;94052.56;;;22.20;76.48
52957;BME280;38819;42.692;23.342;2023-08-06T04:46:22;94060.03;;;22.19;76.56
52957;BME280;38819;42.692;23.342;2023-08-06T04:48:47;94044.72;;;22.08;75.60
52957;BME280;38819;42.692;23.342;2023-08-06T04:51:13;94037.25;;;22.08;75.81
52957;BME280;38819;42.692;23.342;2023-08-06T04:53:38;94024.31;;;22.01;76.08
52957;BME280;38819;42.692;23.342;2023-08-06T04:56:04;94024.31;;;21.98;75.82
52957;BME280;38819;42.692;23.342;2023-08-06T04:58:29;94010.97;;;21.93;77.42
52957;BME280;38819;42.692;23.342;2023-08-06T05:00:54;94011.00;;;21.86;77.13
52957;BME280;38819;42.692;23.342;2023-08-06T05:03:20;94017.66;;;21.84;77.53
52957;BME280;38819;42.692;23.342;2023-08-06T05:05:46;94020.81;;;21.69;77.52
52957;BME280;38819;42.692;23.342;2023-08-06T05:08:15;94028.28;;;21.75;78.22
52957;BME280;38819;42.692;23.342;2023-08-06T05:10:45;94025.91;;;21.84;77.41
52957;BME280;38819;42.692;23.342;2023-08-06T05:13:10;94020.81;;;21.94;76.93
52957;BME280;38819;42.692;23.342;2023-08-06T05:15:36;94030.59;;;22.02;75.59
52957;BME280;38819;42.692;23.342;2023-08-06T05:18:01;94029.44;;;22.10;75.73
52957;BME280;38819;42.692;23.342;2023-08-06T05:20:27;94028.22;;;22.08;75.39
52957;BME280;38819;42.692;23.342;2023-08-06T05:22:52;94037.66;;;22.07;76.02
52957;BME280;38819;42.692;23.342;2023-08-06T05:25:17;94041.19;;;22.14;76.09
52957;BME280;38819;42.692;23.342;2023-08-06T05:27:43;94045.09;;;22.35;76.11
52957;BME280;38819;42.692;23.342;2023-08-06T05:30:09;94039.22;;;22.26;75.81
52957;BME280;38819;42.692;23.342;2023-08-06T05:32:35;94053.34;;;22.13;75.36
52957;BME280;38819;42.692;23.342;2023-08-06T05:35:01;94040.00;;;22.05;76.53
52957;BME280;38819;42.692;23.342;2023-08-06T05:37:26;94034.53;;;22.15;76.60
52957;BME280;38819;42.692;23.342;2023-08-06T05:39:51;94024.69;;;22.18;76.78
52957;BME280;38819;42.692;23.342;2023-08-06T05:42:17;94025.06;;;22.31;77.35
52957;BME280;38819;42.692;23.342;2023-08-06T05:44:42;94020.72;;;22.33;76.45
52957;BME280;38819;42.692;23.342;2023-08-06T05:47:08;94015.59;;;22.50;75.87
52957;BME280;38819;42.692;23.342;2023-08-06T05:49:33;94008.13;;;22.47;74.74
52957;BME280;38819;42.692;23.342;2023-08-06T05:51:59;94020.31;;;22.46;75.51
52957;BME280;38819;42.692;23.342;2023-08-06T05:54:24;94019.50;;;22.52;76.18
52957;BME280;38819;42.692;23.342;2023-08-06T05:56:50;94030.84;;;22.69;74.93
52957;BME280;38819;42.692;23.342;2023-08-06T05:59:15;94036.78;;;22.64;74.92
52957;BME280;38819;42.692;23.342;2023-08-06T06:01:41;94032.41;;;22.73;72.71
52957;BME280;38819;42.692;23.342;2023-08-06T06:04:06;94042.25;;;22.71;71.95
52957;BME280;38819;42.692;23.342;2023-08-06T06:06:31;94040.25;;;22.75;71.41
52957;BME280;38819;42.692;23.342;2023-08-06T06:08:57;94048.50;;;22.82;71.41
52957;BME280;38819;42.692;23.342;2023-08-06T06:11:22;94042.59;;;22.80;71.01
52957;BME280;38819;42.692;23.342;2023-08-06T06:13:51;94065.41;;;22.84;70.11
52957;BME280;38819;42.692;23.342;2023-08-06T06:16:16;94054.41;;;22.77;70.49
52957;BME280;38819;42.692;23.342;2023-08-06T06:18:41;94076.44;;;22.77;67.70
52957;BME280;38819;42.692;23.342;2023-08-06T06:21:07;94061.47;;;22.78;68.67
52957;BME280;38819;42.692;23.342;2023-08-06T06:23:32;94083.50;;;22.74;69.08
52957;BME280;38819;42.692;23.342;2023-08-06T06:25:58;94073.28;;;22.71;70.21
52957;BME280;38819;42.692;23.342;2023-08-06T06:28:23;94084.75;;;22.52;71.44
52957;BME280;38819;42.692;23.342;2023-08-06T06:30:48;94086.69;;;22.66;70.95
52957;BME280;38819;42.692;23.342;2023-08-06T06:33:14;94087.84;;;22.72;70.00
52957;BME280;38819;42.692;23.342;2023-08-06T06:35:39;94092.19;;;22.69;69.04
52957;BME280;38819;42.692;23.342;2023-08-06T06:38:05;94094.16;;;22.58;69.76
52957;BME280;38819;42.692;23.342;2023-08-06T06:40:30;94105.19;;;22.51;69.66
52957;BME280;38819;42.692;23.342;2023-08-06T06:42:55;94109.94;;;22.50;68.53
52957;BME280;38819;42.692;23.342;2023-08-06T06:45:21;94106.78;;;22.45;68.06
52957;BME280;38819;42.692;23.342;2023-08-06T06:47:46;94106.38;;;22.57;68.78
52957;BME280;38819;42.692;23.342;2023-08-06T06:50:12;94117.38;;;22.57;67.71
52957;BME280;38819;42.692;23.342;2023-08-06T06:52:37;94146.44;;;22.65;66.55
52957;BME280;38819;42.692;23.342;2023-08-06T06:55:03;94142.13;;;22.50;66.74
52957;BME280;38819;42.692;23.342;2023-08-06T06:57:28;94140.19;;;22.43;67.20
52957;BME280;38819;42.692;23.342;2023-08-06T06:59:54;94138.63;;;22.35;67.72
52957;BME280;38819;42.692;23.342;2023-08-06T07:02:19;94136.25;;;22.33;67.83
52957;BME280;38819;42.692;23.342;2023-08-06T07:04:45;94135.88;;;22.35;67.96
52957;BME280;38819;42.692;23.342;2023-08-06T07:07:10;94149.22;;;22.54;66.78
52957;BME280;38819;42.692;23.342;2023-08-06T07:09:36;94144.88;;;22.61;67.34
52957;BME280;38819;42.692;23.342;2023-08-06T07:12:01;94149.56;;;22.74;65.94
52957;BME280;38819;42.692;23.342;2023-08-06T07:14:28;94142.88;;;22.79;64.45
52957;BME280;38819;42.692;23.342;2023-08-06T07:16:53;94159.41;;;22.79;64.79
52957;BME280;38819;42.692;23.342;2023-08-06T07:19:19;94149.13;;;22.94;65.33
52957;BME280;38819;42.692;23.342;2023-08-06T07:21:44;94162.09;;;23.01;64.83
52957;BME280;38819;42.692;23.342;2023-08-06T07:24:10;94152.63;;;23.02;64.38
52957;BME280;38819;42.692;23.342;2023-08-06T07:26:36;94156.19;;;22.99;62.94
52957;BME280;38819;42.692;23.342;2023-08-06T07:29:01;94148.34;;;22.97;63.90
52957;BME280;38819;42.692;23.342;2023-08-06T07:31:27;94147.13;;;23.02;63.88
52957;BME280;38819;42.692;23.342;2023-08-06T07:33:52;94164.78;;;23.19;62.38
52957;BME280;38819;42.692;23.342;2023-08-06T07:36:18;94157.34;;;23.19;62.36
52957;BME280;38819;42.692;23.342;2023-08-06T07:38:43;94153.72;;;23.37;60.90
52957;BME280;38819;42.692;23.342;2023-08-06T07:41:09;94145.81;;;23.39;59.71
52957;BME280;38819;42.692;23.342;2023-08-06T07:43:34;94159.59;;;23.46;59.04
52957;BME280;38819;42.692;23.342;2023-08-06T07:46:01;94150.50;;;23.49;59.15
52957;BME280;38819;42.692;23.342;2023-08-06T07:48:27;94157.13;;;23.62;58.59
52957;BME280;38819;42.692;23.342;2023-08-06T07:50:53;94152.38;;;23.66;58.54
52957;BME280;38819;42.692;23.342;2023-08-06T07:53:20;94147.63;;;23.71;58.53
52957;BME280;38819;42.692;23.342;2023-08-06T07:55:53;94140.09;;;23.78;58.44
52957;BME280;38819;42.692;23.342;2023-08-06T07:58:24;94154.69;;;23.75;59.77
52957;BME280;38819;42.692;23.342;2023-08-06T08:00:49;94148.09;;;23.58;61.30
52957;BME280;38819;42.692;23.342;2023-08-06T08:03:16;94157.66;;;23.32;61.23
52957;BME280;38819;42.692;23.342;2023-08-06T08:05:42;94146.25;;;23.30;61.68
52957;BME280;38819;42.692;23.342;2023-08-06T08:08:08;94145.09;;;23.27;61.58
52957;BME280;38819;42.692;23.342;2023-08-06T08:10:34;94143.19;;;23.17;61.61
52957;BME280;38819;42.692;23.342;2023-08-06T08:13:03;94139.28;;;22.93;63.03
52957;BME280;38819;42.692;23.342;2023-08-06T08:15:30;94143.22;;;23.06;61.66
52957;BME280;38819;42.692;23.342;2023-08-06T08:17:56;94145.13;;;23.17;61.26
52957;BME280;38819;42.692;23.342;2023-08-06T08:20:21;94138.47;;;23.14;61.17
52957;BME280;38819;42.692;23.342;2023-08-06T08:22:47;94138.41;;;23.28;61.89
52957;BME280;38819;42.692;23.342;2023-08-06T08:25:12;94141.50;;;23.38;61.34
52957;BME280;38819;42.692;23.342;2023-08-06T08:27:38;94139.91;;;23.47;60.41
52957;BME280;38819;42.692;23.342;2023-08-06T08:30:04;94142.25;;;23.49;59.78
52957;BME280;38819;42.692;23.342;2023-08-06T08:32:30;94139.88;;;23.51;59.92
52957;BME280;38819;42.692;23.342;2023-08-06T08:34:55;94135.06;;;23.66;59.85
52957;BME280;38819;42.692;23.342;2023-08-06T08:37:21;94146.03;;;23.73;59.81
52957;BME280;38819;42.692;23.342;2023-08-06T08:39:46;94132.50;;;23.97;59.40
52957;BME280;38819;42.692;23.342;2023-08-06T08:42:12;94131.63;;;24.07;59.21
52957;BME280;38819;42.692;23.342;2023-08-06T08:44:38;94130.31;;;24.26;59.00
52957;BME280;38819;42.692;23.342;2023-08-06T08:47:08;94127.88;;;24.35;58.07
52957;BME280;38819;42.692;23.342;2023-08-06T08:49:37;94137.31;;;24.38;57.39
52957;BME280;38819;42.692;23.342;2023-08-06T08:52:03;94140.50;;;24.33;57.15
52957;BME280;38819;42.692;23.342;2023-08-06T08:54:33;94124.06;;;24.18;56.83
52957;BME280;38819;42.692;23.342;2023-08-06T08:57:00;94122.84;;;24.23;56.67
52957;BME280;38819;42.692;23.342;2023-08-06T08:59:26;94127.19;;;24.20;57.30
52957;BME280;38819;42.692;23.342;2023-08-06T09:01:52;94124.41;;;24.28;56.22
52957;BME280;38819;42.692;23.342;2023-08-06T09:04:19;94123.66;;;24.20;56.77
52957;BME280;38819;42.692;23.342;2023-08-06T09:06:54;94115.44;;;24.16;58.04
52957;BME280;38819;42.692;23.342;2023-08-06T09:09:26;94120.16;;;24.12;57.20
52957;BME280;38819;42.692;23.342;2023-08-06T09:11:52;94109.56;;;24.11;57.61
52957;BME280;38819;42.692;23.342;2023-08-06T09:14:19;94121.63;;;24.28;57.56
52957;BME280;38819;42.692;23.342;2023-08-06T09:16:44;94104.69;;;24.29;57.41
52957;BME280;38819;42.692;23.342;2023-08-06T09:19:10;94105.78;;;24.35;57.39
52957;BME280;38819;42.692;23.342;2023-08-06T09:21:38;94106.13;;;24.45;55.99
52957;BME280;38819;42.692;23.342;2023-08-06T09:24:13;94091.88;;;24.50;55.61
52957;BME280;38819;42.692;23.342;2023-08-06T09:26:43;94102.84;;;24.57;56.47
52957;BME280;38819;42.692;23.342;2023-08-06T09:29:10;94104.88;;;24.49;55.86
52957;BME280;38819;42.692;23.342;2023-08-06T09:31:45;94087.09;;;24.57;55.40
52957;BME280;38819;42.692;23.342;2023-08-06T09:34:15;94091.00;;;24.60;53.16
52957;BME280;38819;42.692;23.342;2023-08-06T09:36:53;94091.75;;;24.64;53.97
52957;BME280;38819;42.692;23.342;2023-08-06T09:39:22;94086.16;;;24.71;54.52
52957;BME280;38819;42.692;23.342;2023-08-06T09:41:48;94073.16;;;24.68;55.20
52957;BME280;38819;42.692;23.342;2023-08-06T09:44:18;94084.94;;;24.76;54.30
52957;BME280;38819;42.692;23.342;2023-08-06T09:46:52;94078.94;;;24.81;52.77
52957;BME280;38819;42.692;23.342;2023-08-06T09:49:19;94079.63;;;24.89;52.68
52957;BME280;38819;42.692;23.342;2023-08-06T09:51:46;94080.50;;;24.82;52.67
52957;BME280;38819;42.692;23.342;2023-08-06T09:54:16;94091.94;;;24.84;52.40
52957;BME280;38819;42.692;23.342;2023-08-06T09:56:42;94084.06;;;24.79;51.91
52957;BME280;38819;42.692;23.342;2023-08-06T09:59:08;94091.25;;;24.73;52.38
52957;BME280;38819;42.692;23.342;2023-08-06T10:01:35;94108.13;;;24.82;52.36
52957;BME280;38819;42.692;23.342;2023-08-06T10:04:05;94094.69;;;24.84;50.86
52957;BME280;38819;42.692;23.342;2023-08-06T10:06:35;94093.84;;;24.91;50.71
52957;BME280;38819;42.692;23.342;2023-08-06T10:09:02;94089.09;;;24.91;50.94
52957;BME280;38819;42.692;23.342;2023-08-06T10:11:28;94099.16;;;25.05;49.66
52957;BME280;38819;42.692;23.342;2023-08-06T10:13:58;94101.22;;;25.01;48.41
52957;BME280;38819;42.692;23.342;2023-08-06T10:16:25;94107.00;;;25.10;48.79
52957;BME280;38819;42.692;23.342;2023-08-06T10:18:52;94107.47;;;25.05;48.90
52957;BME280;38819;42.692;23.342;2023-08-06T10:21:19;94099.59;;;25.04;49.56
52957;BME280;38819;42.692;23.342;2023-08-06T10:23:53;94095.53;;;25.12;49.15
52957;BME280;38819;42.692;23.342;2023-08-06T10:26:19;94091.81;;;25.26;49.36
52957;BME280;38819;42.692;23.342;2023-08-06T10:28:44;94090.41;;;25.45;49.69
52957;BME280;38819;42.692;23.342;2023-08-06T10:31:10;94105.00;;;25.45;49.03
52957;BME280;38819;42.692;23.342;2023-08-06T10:33:46;94110.06;;;25.50;49.13
52957;BME280;38819;42.692;23.342;2023-08-06T10:36:13;94117.53;;;25.54;49.12
52957;BME280;38819;42.692;23.342;2023-08-06T10:38:49;94118.88;;;25.42;49.49
52957;BME280;38819;42.692;23.342;2023-08-06T10:41:16;94118.16;;;25.38;50.32
52957;BME280;38819;42.692;23.342;2023-08-06T10:43:42;94115.25;;;25.14;50.42
52957;BME280;38819;42.692;23.342;2023-08-06T10:46:11;94126.22;;;25.21;50.91
52957;BME280;38819;42.692;23.342;2023-08-06T10:48:41;94127.34;;;25.27;50.21
52957;BME280;38819;42.692;23.342;2023-08-06T10:51:09;94134.75;;;25.34;49.92
52957;BME280;38819;42.692;23.342;2023-08-06T10:53:35;94136.75;;;25.33;48.99
52957;BME280;38819;42.692;23.342;2023-08-06T10:56:01;94131.22;;;25.33;49.23
52957;BME280;38819;42.692;23.342;2023-08-06T10:58:32;94141.56;;;25.29;49.83
52957;BME280;38819;42.692;23.342;2023-08-06T11:00:58;94138.78;;;25.29;49.99
52957;BME280;38819;42.692;23.342;2023-08-06T11:03:24;94149.78;;;25.33;49.84
52957;BME280;38819;42.692;23.342;2023-08-06T11:05:49;94150.97;;;25.32;50.08
52957;BME280;38819;42.692;23.342;2023-08-06T11:08:33;94149.84;;;25.29;49.67
52957;BME280;38819;42.692;23.342;2023-08-06T11:11:10;94141.03;;;25.38;49.38
52957;BME280;38819;42.692;23.342;2023-08-06T11:13:49;94141.84;;;25.35;49.34
52957;BME280;38819;42.692;23.342;2023-08-06T11:16:20;94148.63;;;25.30;50.16
52957;BME280;38819;42.692;23.342;2023-08-06T11:18:46;94156.63;;;25.21;50.23
52957;BME280;38819;42.692;23.342;2023-08-06T11:21:12;94159.75;;;25.23;49.70
52957;BME280;38819;42.692;23.342;2023-08-06T11:23:38;94161.34;;;25.21;50.87
52957;BME280;38819;42.692;23.342;2023-08-06T11:26:04;94173.91;;;25.25;51.91
52957;BME280;38819;42.692;23.342;2023-08-06T11:28:30;94170.31;;;25.32;52.12
52957;BME280;38819;42.692;23.342;2023-08-06T11:30:55;94177.06;;;25.31;52.78
52957;BME280;38819;42.692;23.342;2023-08-06T11:33:23;94171.09;;;25.32;51.03
52957;BME280;38819;42.692;23.342;2023-08-06T11:35:51;94159.69;;;25.30;52.01
52957;BME280;38819;42.692;23.342;2023-08-06T11:38:17;94153.84;;;25.21;51.99
52957;BME280;38819;42.692;23.342;2023-08-06T11:40:47;94155.13;;;25.13;51.47
52957;BME280;38819;42.692;23.342;2023-08-06T11:43:13;94157.88;;;25.13;50.75
52957;BME280;38819;42.692;23.342;2023-08-06T11:45:40;94147.50;;;25.28;51.22
52957;BME280;38819;42.692;23.342;2023-08-06T11:48:06;94140.63;;;25.40;49.89
52957;BME280;38819;42.692;23.342;2023-08-06T11:50:36;94141.03;;;25.38;49.67
52957;BME280;38819;42.692;23.342;2023-08-06T11:53:03;94142.16;;;25.44;50.66
52957;BME280;38819;42.692;23.342;2023-08-06T11:55:29;94146.75;;;25.55;49.38
52957;BME280;38819;42.692;23.342;2023-08-06T11:57:55;94142.06;;;25.51;47.82
52957;BME280;38819;42.692;23.342;2023-08-06T12:00:23;94140.00;;;25.56;48.92
52957;BME280;38819;42.692;23.342;2023-08-06T12:02:49;94131.72;;;25.56;48.30
52957;BME280;38819;42.692;23.342;2023-08-06T12:05:18;94127.66;;;25.64;47.86
52957;BME280;38819;42.692;23.342;2023-08-06T12:07:56;94125.72;;;25.61;47.85
52957;BME280;38819;42.692;23.342;2023-08-06T12:10:24;94128.66;;;25.77;47.65
52957;BME280;38819;42.692;23.342;2023-08-06T12:12:49;94131.97;;;25.96;47.73
52957;BME280;38819;42.692;23.342;2023-08-06T12:15:16;94121.00;;;25.88;46.82
52957;BME280;38819;42.692;23.342;2023-08-06T12:17:41;94129.59;;;25.98;46.67
52957;BME280;38819;42.692;23.342;2023-08-06T12:20:07;94125.75;;;26.15;45.11
52957;BME280;38819;42.692;23.342;2023-08-06T12:22:34;94120.09;;;26.22;44.84
52957;BME280;38819;42.692;23.342;2023-08-06T12:25:05;94129.47;;;26.29;45.19
52957;BME280;38819;42.692;23.342;2023-08-06T12:27:36;94121.97;;;26.29;45.34
52957;BME280;38819;42.692;23.342;2023-08-06T12:30:02;94122.56;;;26.17;45.67
52957;BME280;38819;42.692;23.342;2023-08-06T12:32:28;94121.47;;;26.11;45.21
52957;BME280;38819;42.692;23.342;2023-08-06T12:34:54;94120.28;;;26.12;45.06
52957;BME280;38819;42.692;23.342;2023-08-06T12:37:19;94120.69;;;26.10;45.33
52957;BME280;38819;42.692;23.342;2023-08-06T12:39:45;94120.75;;;26.06;45.22
52957;BME280;38819;42.692;23.342;2023-08-06T12:42:10;94124.72;;;26.05;45.24
52957;BME280;38819;42.692;23.342;2023-08-06T12:44:36;94115.34;;;26.23;45.86
52957;BME280;38819;42.692;23.342;2023-08-06T12:47:01;94103.66;;;26.35;45.34
52957;BME280;38819;42.692;23.342;2023-08-06T12:49:27;94107.81;;;26.47;45.61
52957;BME280;38819;42.692;23.342;2023-08-06T12:51:54;94098.25;;;26.52;44.77
52957;BME280;38819;42.692;23.342;2023-08-06T12:54:20;94107.19;;;26.59;44.58